Time;durP1;ratioP1;P1;durP2;ratioP2;P2;SDS_P1;SDS_P2;PMS_P1;PMS_P2;Temp;Humidity;BMP_temperature;BMP_pressure;BME280_temperature;BME280_humidity;BME280_pressure;Samples;Min_cycle;Max_cycle;Signal;HPM_P1;HPM_P2
2022/06/06 00:01:15;;;;;;;18.05;9.07;;;;;;;19.74;100.00;97219.09;5085161;28;20082;-75
2022/06/06 00:03:41;;;;;;;19.13;9.43;;;;;;;19.52;100.00;97202.47;5080231;28;20024;-75
2022/06/06 00:06:13;;;;;;;18.60;8.82;;;;;;;19.53;100.00;97207.78;5087920;28;20032;-75
2022/06/06 00:08:39;;;;;;;17.83;8.07;;;;;;;19.57;100.00;97202.84;5081696;28;20514;-75
2022/06/06 00:11:05;;;;;;;14.18;7.90;;;;;;;19.65;100.00;97197.50;5084449;28;20028;-75
2022/06/06 00:13:32;;;;;;;14.52;7.05;;;;;;;19.65;100.00;97192.94;5085927;28;20024;-75
2022/06/06 00:15:59;;;;;;;11.20;7.25;;;;;;;19.61;100.00;97187.97;5082907;28;20101;-75
2022/06/06 00:18:24;;;;;;;15.55;6.85;;;;;;;19.66;100.00;97189.19;5086003;28;20020;-76
2022/06/06 00:20:50;;;;;;;12.65;6.60;;;;;;;19.68;100.00;97197.19;5095221;28;20430;-75
2022/06/06 00:23:15;;;;;;;10.35;6.53;;;;;;;19.71;100.00;97208.56;5100703;28;20038;-76
2022/06/06 00:25:41;;;;;;;9.68;6.25;;;;;;;19.82;100.00;97205.56;5107252;28;20099;-75
2022/06/06 00:28:07;;;;;;;12.52;6.30;;;;;;;19.75;100.00;97199.06;5084101;28;20035;-75
2022/06/06 00:30:32;;;;;;;17.70;7.05;;;;;;;19.74;100.00;97202.81;5088410;28;20020;-75
2022/06/06 00:35:42;;;;;;;12.52;6.40;;;;;;;19.68;100.00;97194.47;5092637;28;20054;-75
2022/06/06 00:38:07;;;;;;;14.52;6.70;;;;;;;19.64;100.00;97193.94;5078761;28;20126;-75
2022/06/06 00:40:33;;;;;;;8.93;6.20;;;;;;;19.63;100.00;97194.94;5077950;28;20055;-75
2022/06/06 00:42:59;;;;;;;10.68;5.97;;;;;;;19.60;100.00;97191.69;5072639;28;20033;-75
2022/06/06 00:45:31;;;;;;;16.33;6.70;;;;;;;19.67;100.00;97190.03;5107254;28;20024;-75
2022/06/06 00:48:20;;;;;;;15.32;6.32;;;;;;;19.60;100.00;97184.38;5102321;28;20356;-75
2022/06/06 00:51:06;;;;;;;11.85;5.75;;;;;;;19.53;100.00;97172.50;5079316;28;20027;-75
2022/06/06 00:53:41;;;;;;;14.40;6.78;;;;;;;19.60;100.00;97183.53;5073612;28;20089;-75
2022/06/06 00:56:12;;;;;;;12.45;5.57;;;;;;;19.57;100.00;97184.72;5095462;28;20027;-75
2022/06/06 00:58:41;;;;;;;14.13;6.40;;;;;;;19.52;100.00;97169.94;5086541;28;20032;-75
2022/06/06 01:01:08;;;;;;;16.45;6.60;;;;;;;19.58;100.00;97163.84;5098349;28;20552;-75
2022/06/06 01:03:37;;;;;;;12.90;6.05;;;;;;;19.60;100.00;97150.97;5079899;28;20065;-75
2022/06/06 01:06:03;;;;;;;11.38;5.43;;;;;;;19.61;100.00;97131.84;5082053;28;20027;-75
2022/06/06 01:08:29;;;;;;;11.10;5.18;;;;;;;19.62;100.00;97141.69;5084892;28;20486;-75
2022/06/06 01:10:58;;;;;;;7.90;5.68;;;;;;;19.59;100.00;97138.44;5103880;28;20031;-75
2022/06/06 01:13:24;;;;;;;10.32;5.90;;;;;;;19.70;100.00;97155.28;5084726;28;20032;-75
2022/06/06 01:16:31;;;;;;;11.63;5.72;;;;;;;19.66;100.00;97159.31;5084712;28;20031;-76
2022/06/06 01:19:24;;;;;;;12.25;6.22;;;;;;;19.71;100.00;97153.44;5096322;28;20039;-75
2022/06/06 01:22:11;;;;;;;10.23;7.43;;;;;;;19.81;100.00;97151.47;5089094;28;20028;-75
2022/06/06 01:24:43;;;;;;;15.98;7.68;;;;;;;19.84;100.00;97146.53;5094451;28;20031;-75
2022/06/06 01:27:42;;;;;;;13.13;6.78;;;;;;;19.91;100.00;97139.44;5101535;28;20039;-75
2022/06/06 01:30:11;;;;;;;10.38;5.80;;;;;;;19.83;100.00;97119.56;5094075;28;20103;-74
2022/06/06 01:32:41;;;;;;;16.05;6.53;;;;;;;19.64;100.00;97090.81;5100190;28;20046;-75
2022/06/06 01:35:08;;;;;;;13.95;5.90;;;;;;;19.32;100.00;97079.72;5089717;28;20127;-75
2022/06/06 01:37:33;;;;;;;11.68;5.60;;;;;;;19.02;100.00;97075.66;5080344;28;20032;-75
2022/06/06 01:40:01;;;;;;;11.68;5.65;;;;;;;18.93;100.00;97074.75;5100385;28;20026;-75
2022/06/06 01:42:38;;;;;;;10.65;6.07;;;;;;;18.90;100.00;97072.34;5078028;28;20023;-74
2022/06/06 01:45:28;;;;;;;9.02;6.07;;;;;;;18.94;100.00;97067.47;5083006;28;20055;-75
2022/06/06 01:48:03;;;;;;;11.18;5.80;;;;;;;19.01;100.00;97084.78;5078218;28;20028;-75
2022/06/06 01:50:29;;;;;;;8.93;5.68;;;;;;;19.05;100.00;97074.47;5080454;28;20146;-75
2022/06/06 01:53:02;;;;;;;9.68;6.47;;;;;;;19.11;100.00;97074.69;5095197;28;20066;-75
2022/06/06 01:55:30;;;;;;;9.57;6.13;;;;;;;19.17;100.00;97078.63;5077680;28;20058;-75
2022/06/06 01:57:59;;;;;;;7.80;6.20;;;;;;;19.27;100.00;97085.66;5103670;28;20410;-75
2022/06/06 02:00:25;;;;;;;12.00;6.20;;;;;;;19.31;100.00;97091.59;5099341;28;20028;-75
2022/06/06 02:02:52;;;;;;;17.02;6.53;;;;;;;19.40;100.00;97090.69;5080678;28;20035;-75
2022/06/06 02:05:17;;;;;;;9.13;6.30;;;;;;;19.45;100.00;97099.16;5103841;28;20028;-75
2022/06/06 02:07:44;;;;;;;11.63;6.13;;;;;;;19.59;100.00;97117.59;5081269;28;20032;-76
2022/06/06 02:10:11;;;;;;;10.82;6.57;;;;;;;19.68;100.00;97129.31;5093409;28;20031;-75
2022/06/06 02:12:40;;;;;;;14.35;7.13;;;;;;;19.78;100.00;97127.34;5096473;28;20089;-76
2022/06/06 02:15:08;;;;;;;15.27;7.65;;;;;;;19.80;100.00;97166.88;5076645;28;20049;-76
2022/06/06 02:17:34;;;;;;;21.00;8.27;;;;;;;19.72;100.00;97207.53;5084019;28;20483;-76
2022/06/06 02:20:01;;;;;;;14.52;7.82;;;;;;;19.75;100.00;97252.53;5081278;28;20051;-76
2022/06/06 02:22:27;;;;;;;19.67;8.50;;;;;;;19.54;100.00;97282.72;5097075;28;20035;-75
2022/06/06 02:24:53;;;;;;;28.52;8.88;;;;;;;19.17;100.00;97303.69;5080985;28;20027;-76
2022/06/06 02:27:19;;;;;;;36.38;9.52;;;;;;;18.99;100.00;97314.53;5095525;28;20037;-76
2022/06/06 02:29:44;;;;;;;11.68;4.78;;;;;;;18.99;100.00;97340.78;5085541;28;20407;-76
2022/06/06 02:32:11;;;;;;;1.02;0.93;;;;;;;18.60;100.00;97369.94;5105987;28;20027;-75
2022/06/06 02:34:37;;;;;;;0.82;0.47;;;;;;;18.22;100.00;97376.31;5097289;28;20047;-75
2022/06/06 02:37:04;;;;;;;0.45;0.28;;;;;;;18.18;100.00;97345.13;5102408;28;20026;-75
2022/06/06 02:39:29;;;;;;;1.48;1.13;;;;;;;18.12;100.00;97326.78;5073820;28;20035;-75
2022/06/06 02:41:55;;;;;;;2.90;1.75;;;;;;;18.20;100.00;97332.28;5097946;28;20024;-76
2022/06/06 02:44:21;;;;;;;0.65;0.65;;;;;;;18.05;100.00;97329.19;5079740;28;20488;-76
2022/06/06 02:46:47;;;;;;;1.58;0.93;;;;;;;17.95;100.00;97330.22;5094985;28;20119;-75
2022/06/06 02:49:12;;;;;;;1.00;0.32;;;;;;;17.96;100.00;97334.63;5087255;28;20122;-75
2022/06/06 02:51:38;;;;;;;0.75;0.63;;;;;;;17.95;100.00;97328.38;5098249;28;20441;-75
2022/06/06 02:54:03;;;;;;;0.60;0.60;;;;;;;18.01;100.00;97325.06;5096116;28;20028;-75
2022/06/06 02:56:29;;;;;;;0.32;0.32;;;;;;;18.04;100.00;97296.84;5086695;28;20374;-74
2022/06/06 02:58:56;;;;;;;0.13;0.13;;;;;;;18.22;100.00;97305.91;5101989;28;20494;-75
2022/06/06 03:01:21;;;;;;;0.30;0.30;;;;;;;18.27;100.00;97309.03;5102902;28;20024;-76
2022/06/06 03:03:47;;;;;;;0.80;0.45;;;;;;;18.42;100.00;97327.38;5107061;28;20040;-75
2022/06/06 03:06:40;;;;;;;0.38;0.38;;;;;;;18.61;100.00;97352.69;5086308;28;20106;-76
2022/06/06 03:09:41;;;;;;;1.98;1.27;;;;;;;18.84;100.00;97364.84;5104979;28;20057;-75
2022/06/06 03:12:21;;;;;;;0.82;0.82;;;;;;;18.63;100.00;97296.50;5014631;28;20036;-77
2022/06/06 03:14:49;;;;;;;1.20;0.70;;;;;;;18.43;100.00;97279.44;5095126;28;20423;-76
2022/06/06 03:23:31;;;;;;;0.30;0.30;;;;;;;18.39;100.00;97235.53;5089856;28;20059;-76
2022/06/06 03:26:08;;;;;;;0.40;0.40;;;;;;;18.55;100.00;97234.09;5101694;28;20691;-76
2022/06/06 03:28:59;;;;;;;0.52;0.30;;;;;;;18.51;100.00;97163.13;5099650;28;20031;-76
2022/06/06 03:31:46;;;;;;;1.02;0.70;;;;;;;18.35;100.00;97081.66;5102247;28;20479;-75
2022/06/06 03:34:34;;;;;;;1.67;0.85;;;;;;;18.37;100.00;97128.38;5097234;28;20412;-76
2022/06/06 03:37:16;;;;;;;1.27;0.52;;;;;;;18.48;100.00;97192.31;5095688;28;20024;-76
2022/06/06 03:39:44;;;;;;;1.27;0.50;;;;;;;18.59;100.00;97195.69;5100334;28;20467;-76
2022/06/06 03:42:44;;;;;;;0.82;0.77;;;;;;;18.70;100.00;97238.81;5099882;28;20032;-74
2022/06/06 03:45:25;;;;;;;1.45;0.60;;;;;;;18.75;100.00;97257.34;5098628;28;20355;-78
2022/06/06 03:48:14;;;;;;;0.20;0.20;;;;;;;18.84;100.00;97272.69;5097024;28;20036;-78
2022/06/06 03:51:08;;;;;;;0.40;0.40;;;;;;;18.84;100.00;97278.97;5105411;28;20023;-79
2022/06/06 03:53:53;;;;;;;2.22;1.05;;;;;;;18.87;100.00;97294.94;5095972;28;20399;-79
2022/06/06 03:56:22;;;;;;;2.08;0.65;;;;;;;18.91;100.00;97298.19;5089575;28;20084;-78
2022/06/06 03:58:48;;;;;;;1.63;0.82;;;;;;;18.94;100.00;97298.75;5098352;28;20486;-78
2022/06/06 04:01:15;;;;;;;2.60;1.88;;;;;;;19.08;100.00;97310.03;5102738;28;20024;-78
2022/06/06 04:03:43;;;;;;;2.28;1.60;;;;;;;19.02;100.00;97297.97;5096836;28;20556;-78
2022/06/06 04:06:09;;;;;;;0.10;0.10;;;;;;;19.08;100.00;97286.50;5092372;28;20406;-78
2022/06/06 04:08:35;;;;;;;0.45;0.45;;;;;;;19.21;100.00;97300.53;5093148;28;20028;-78
2022/06/06 04:11:25;;;;;;;0.73;0.73;;;;;;;19.30;100.00;97291.47;5105505;28;20379;-77
2022/06/06 04:14:10;;;;;;;0.90;0.73;;;;;;;19.33;100.00;97277.59;5091020;28;20082;-78
2022/06/06 04:16:57;;;;;;;0.25;0.25;;;;;;;19.35;100.00;97288.28;5108484;28;20470;-77
2022/06/06 04:19:34;;;;;;;0.55;0.20;;;;;;;19.49;100.00;97282.34;5095174;28;20373;-78
2022/06/06 04:22:13;;;;;;;0.75;0.70;;;;;;;19.50;100.00;97281.34;5073986;28;20034;-80
2022/06/06 04:24:58;;;;;;;0.90;0.43;;;;;;;19.59;100.00;97276.84;5091630;28;20036;-77
2022/06/06 04:27:35;;;;;;;0.40;0.40;;;;;;;19.62;100.00;97274.66;5073577;28;20024;-77
2022/06/06 04:30:06;;;;;;;0.50;0.25;;;;;;;19.75;100.00;97263.41;5102917;28;20030;-78
2022/06/06 04:32:32;;;;;;;0.50;0.30;;;;;;;19.90;100.00;97281.63;5093913;28;20019;-77
2022/06/06 04:35:19;;;;;;;3.38;0.88;;;;;;;19.93;100.00;97278.59;5103637;28;20433;-77
2022/06/06 04:37:46;;;;;;;0.20;0.20;;;;;;;19.97;100.00;97270.97;5110945;28;20187;-77
2022/06/06 04:40:17;;;;;;;3.58;0.82;;;;;;;19.96;100.00;97272.84;5110544;28;20111;-77
2022/06/06 04:43:01;;;;;;;0.60;0.40;;;;;;;19.97;100.00;97258.25;5102248;28;20395;-77
2022/06/06 04:45:38;;;;;;;1.50;0.70;;;;;;;20.13;100.00;97262.09;5110769;28;20023;-77
2022/06/06 04:48:05;;;;;;;1.65;1.42;;;;;;;20.17;100.00;97258.03;5110381;28;20026;-77
2022/06/06 04:50:32;;;;;;;0.93;0.43;;;;;;;20.31;100.00;97254.75;5110869;28;20379;-77
2022/06/06 04:53:05;;;;;;;0.40;0.40;;;;;;;20.44;100.00;97249.72;5084723;28;20031;-78
2022/06/06 04:55:33;;;;;;;0.30;0.30;;;;;;;20.68;100.00;97267.97;5093677;28;20440;-77
2022/06/06 04:58:02;;;;;;;0.35;0.35;;;;;;;20.85;100.00;97248.00;5093235;28;20069;-77
2022/06/06 05:00:33;;;;;;;0.52;0.40;;;;;;;21.33;100.00;97269.00;5080787;28;20024;-77
2022/06/06 05:02:59;;;;;;;0.88;0.50;;;;;;;21.53;100.00;97252.19;5072838;28;20036;-77
2022/06/06 05:05:33;;;;;;;1.70;1.08;;;;;;;21.68;100.00;97271.44;5076350;28;20038;-77
2022/06/06 05:08:03;;;;;;;0.68;0.52;;;;;;;22.04;100.00;97272.78;5085125;28;20032;-76
2022/06/06 05:10:37;;;;;;;4.43;0.75;;;;;;;22.52;100.00;97288.13;5089206;28;20024;-77
2022/06/06 05:13:10;;;;;;;0.60;0.60;;;;;;;23.19;100.00;97300.28;5081433;28;20509;-77
2022/06/06 05:16:08;;;;;;;0.85;0.52;;;;;;;24.07;100.00;97289.75;5101483;28;20445;-76
2022/06/06 05:18:47;;;;;;;0.28;0.28;;;;;;;24.16;100.00;97277.75;5088212;28;20035;-75
2022/06/06 05:21:30;;;;;;;7.82;1.13;;;;;;;24.62;100.00;97278.44;5109923;28;20032;-85
2022/06/06 05:24:19;;;;;;;0.60;0.35;;;;;;;25.15;99.42;97279.16;5097575;28;20033;-79
2022/06/06 05:27:28;;;;;;;0.70;0.38;;;;;;;25.92;91.04;97288.41;5079363;28;20039;-80
2022/06/06 05:30:23;;;;;;;0.60;0.60;;;;;;;25.43;97.13;97292.94;5022623;28;20066;-80
2022/06/06 05:33:00;;;;;;;0.70;0.63;;;;;;;26.16;89.41;97282.53;5083191;28;20439;-80
2022/06/06 05:35:32;;;;;;;0.25;0.25;;;;;;;26.01;89.66;97300.94;5089563;28;20532;-80
2022/06/06 05:38:00;;;;;;;0.45;0.45;;;;;;;25.31;95.01;97298.94;5099764;28;20043;-79
2022/06/06 05:40:47;;;;;;;0.65;0.40;;;;;;;24.75;98.65;97295.03;5089578;28;20062;-80
2022/06/06 05:43:50;;;;;;;2.67;1.50;;;;;;;24.52;100.00;97293.41;5090216;28;20410;-80
2022/06/06 05:46:35;;;;;;;2.40;0.80;;;;;;;24.22;100.00;97285.19;5092055;28;20116;-78
2022/06/06 05:49:00;;;;;;;0.38;0.32;;;;;;;23.75;100.00;97292.75;5073184;28;20512;-78
2022/06/06 05:51:42;;;;;;;1.27;0.82;;;;;;;24.30;100.00;97294.38;5100225;28;20110;-80
2022/06/06 05:54:27;;;;;;;1.35;1.05;;;;;;;26.07;93.54;97307.53;5110538;28;20027;-83
2022/06/06 05:57:22;;;;;;;1.38;0.93;;;;;;;25.96;90.64;97310.81;5085140;28;20407;-80
2022/06/06 05:59:54;;;;;;;0.90;0.80;;;;;;;25.77;98.26;97323.28;5096646;28;20040;-79
2022/06/06 06:02:53;;;;;;;0.13;0.13;;;;;;;25.36;99.83;97325.72;5099071;28;20479;-80
2022/06/06 06:05:37;;;;;;;0.43;0.43;;;;;;;24.92;100.00;97325.78;5101382;28;20028;-80
2022/06/06 06:08:40;;;;;;;3.05;0.75;;;;;;;24.32;100.00;97325.09;5109994;28;20027;-79
2022/06/06 06:11:24;;;;;;;1.52;0.98;;;;;;;23.69;100.00;97343.53;5109893;28;20030;-79
2022/06/06 06:14:31;;;;;;;0.50;0.50;;;;;;;23.27;100.00;97353.16;5079781;28;20562;-79
2022/06/06 06:16:59;;;;;;;0.28;0.28;;;;;;;22.59;100.00;97351.00;5012027;28;20031;-80
2022/06/06 06:19:47;;;;;;;0.40;0.40;;;;;;;22.08;100.00;97320.47;4993539;28;20124;-80
2022/06/06 06:22:13;;;;;;;0.60;0.60;;;;;;;22.40;100.00;97344.06;5050169;28;20040;-79
2022/06/06 06:24:41;;;;;;;2.13;1.23;;;;;;;22.58;100.00;97360.19;5079188;28;20031;-79
2022/06/06 06:27:07;;;;;;;0.60;0.40;;;;;;;22.44;100.00;97356.31;5098506;28;20483;-80
2022/06/06 06:29:33;;;;;;;1.10;0.98;;;;;;;22.42;100.00;97361.13;5087036;28;20138;-80
2022/06/06 06:32:11;;;;;;;0.85;0.75;;;;;;;22.41;100.00;97350.38;5088340;28;20114;-80
2022/06/06 06:35:07;;;;;;;0.43;0.28;;;;;;;22.54;100.00;97347.97;5095089;27;20044;-80
2022/06/06 06:37:47;;;;;;;0.32;0.32;;;;;;;22.76;100.00;97360.88;5077971;28;20107;-79
2022/06/06 06:40:50;;;;;;;0.20;0.20;;;;;;;23.29;100.00;97362.03;5106003;28;20032;-79
2022/06/06 06:43:21;;;;;;;2.28;1.00;;;;;;;23.40;100.00;97367.13;5085378;28;20027;-79
2022/06/06 06:45:57;;;;;;;0.38;0.28;;;;;;;23.46;100.00;97369.13;5112239;28;20030;-79
2022/06/06 06:48:33;;;;;;;0.38;0.32;;;;;;;23.47;100.00;97363.47;5087212;28;20518;-80
2022/06/06 06:51:31;;;;;;;0.20;0.20;;;;;;;23.58;100.00;97374.00;5081579;28;20096;-80
2022/06/06 06:54:11;;;;;;;0.88;0.60;;;;;;;23.55;100.00;97354.38;5041366;28;20087;-80
2022/06/06 06:57:13;;;;;;;1.75;0.70;;;;;;;23.67;100.00;97383.84;5107609;28;20103;-79
2022/06/06 07:09:44;;;;;;;0.52;0.47;;;;;;;22.05;100.00;97380.75;5104253;28;20551;-79
2022/06/06 07:12:49;;;;;;;0.40;0.40;;;;;;;21.88;100.00;97376.28;5106535;28;20034;-79
2022/06/06 07:15:31;;;;;;;0.10;0.10;;;;;;;21.63;100.00;97353.59;5090172;28;20055;-79
2022/06/06 07:17:59;;;;;;;0.57;0.57;;;;;;;21.65;100.00;97363.47;5093127;28;20070;-79
2022/06/06 07:20:26;;;;;;;0.43;0.43;;;;;;;21.61;100.00;97354.78;5086194;28;20153;-81
2022/06/06 07:23:05;;;;;;;1.33;0.80;;;;;;;21.71;100.00;97368.25;5101191;28;20027;-78
2022/06/06 07:25:39;;;;;;;1.75;0.70;;;;;;;21.68;100.00;97374.91;5087925;28;20024;-81
2022/06/06 07:28:07;;;;;;;1.20;0.77;;;;;;;21.67;100.00;97385.94;5101048;28;20028;-80
2022/06/06 07:30:40;;;;;;;0.77;0.77;;;;;;;21.60;100.00;97386.59;5075718;28;20461;-80
2022/06/06 07:33:18;;;;;;;0.60;0.60;;;;;;;21.66;100.00;97385.06;5075488;28;20024;-79
2022/06/06 07:36:07;;;;;;;1.70;1.00;;;;;;;21.64;100.00;97387.13;5091918;28;20047;-80
2022/06/06 07:39:01;;;;;;;1.23;0.75;;;;;;;21.51;100.00;97390.34;5086035;28;20023;-80
2022/06/06 07:41:57;;;;;;;0.43;0.43;;;;;;;21.49;100.00;97399.69;5086566;28;20031;-80
2022/06/06 07:44:57;;;;;;;1.10;0.68;;;;;;;21.41;100.00;97394.25;5063541;28;20043;-80
2022/06/06 07:47:54;;;;;;;1.25;0.75;;;;;;;21.32;100.00;97393.34;5054207;28;20411;-80
2022/06/06 07:50:51;;;;;;;2.20;0.82;;;;;;;21.49;100.00;97386.94;5082425;28;20036;-79
2022/06/06 07:53:53;;;;;;;1.13;0.85;;;;;;;21.86;100.00;97391.94;5102828;28;20444;-80
2022/06/06 07:56:54;;;;;;;0.35;0.35;;;;;;;21.87;100.00;97382.72;5083211;28;20425;-80
2022/06/06 07:59:54;;;;;;;0.50;0.20;;;;;;;21.78;100.00;97410.97;5090306;28;20421;-80
2022/06/06 08:02:36;;;;;;;5.95;1.15;;;;;;;21.76;100.00;97451.13;5089845;28;20503;-80
2022/06/06 08:05:21;;;;;;;1.80;0.87;;;;;;;21.57;100.00;97456.88;5093332;28;20123;-80
2022/06/06 08:08:04;;;;;;;0.43;0.40;;;;;;;21.38;100.00;97447.09;5092252;28;20685;-79
2022/06/06 08:10:32;;;;;;;0.40;0.40;;;;;;;21.25;100.00;97445.88;5090869;28;20019;-79
2022/06/06 08:13:07;;;;;;;1.33;0.85;;;;;;;21.08;100.00;97434.03;5092771;28;20104;-79
2022/06/06 08:15:51;;;;;;;9.57;0.75;;;;;;;20.97;100.00;97445.19;5090380;28;20035;-80
2022/06/06 08:18:23;;;;;;;1.35;0.70;;;;;;;20.87;100.00;97448.03;5085510;28;20550;-79
2022/06/06 08:21:02;;;;;;;0.90;0.73;;;;;;;20.82;100.00;97455.84;5102585;28;20075;-79
2022/06/06 08:23:32;;;;;;;2.78;0.95;;;;;;;20.71;100.00;97450.66;5091320;28;20046;-79
2022/06/06 08:25:59;;;;;;;0.90;0.40;;;;;;;20.65;100.00;97469.47;5084910;28;20392;-79
2022/06/06 08:28:26;;;;;;;1.73;0.70;;;;;;;20.55;100.00;97459.53;5091596;28;20030;-79
2022/06/06 08:30:51;;;;;;;2.25;1.05;;;;;;;20.44;100.00;97413.63;5075785;28;20119;-78
2022/06/06 08:33:17;;;;;;;0.35;0.35;;;;;;;20.35;100.00;97370.25;5099514;28;20531;-80
2022/06/06 08:35:58;;;;;;;2.38;0.70;;;;;;;20.08;100.00;97357.63;5074429;28;20024;-79
2022/06/06 08:38:24;;;;;;;9.23;1.85;;;;;;;20.08;100.00;97337.78;5106620;28;20399;-79
2022/06/06 08:41:04;;;;;;;3.15;0.60;;;;;;;20.04;100.00;97339.94;5098264;28;20031;-78
2022/06/06 08:43:36;;;;;;;1.52;0.98;;;;;;;20.05;100.00;97395.97;5103256;28;20146;-79
2022/06/06 08:46:21;;;;;;;0.73;0.73;;;;;;;20.15;100.00;97440.16;5093836;28;20028;-79
2022/06/06 08:48:56;;;;;;;1.45;0.85;;;;;;;20.18;100.00;97439.03;5073562;28;20039;-78
2022/06/06 08:51:23;;;;;;;0.85;0.70;;;;;;;20.23;100.00;97426.69;5102868;28;20036;-79
2022/06/06 08:54:07;;;;;;;0.35;0.35;;;;;;;20.36;100.00;97440.75;5095773;28;20036;-79
2022/06/06 08:57:03;;;;;;;1.10;0.80;;;;;;;20.42;100.00;97431.97;5091143;28;20051;-78
2022/06/06 08:59:47;;;;;;;1.27;1.17;;;;;;;20.44;100.00;97448.09;5085736;28;20502;-78
2022/06/06 09:02:28;;;;;;;2.63;1.40;;;;;;;20.46;100.00;97443.34;5100999;28;20051;-79
2022/06/06 09:05:15;;;;;;;1.40;1.10;;;;;;;20.50;100.00;97444.72;5090765;28;20067;-79
2022/06/06 09:07:58;;;;;;;3.80;1.27;;;;;;;20.55;100.00;97442.38;5096210;28;20031;-79
2022/06/06 09:10:55;;;;;;;1.02;0.60;;;;;;;20.54;100.00;97448.84;5075513;28;20032;-79
2022/06/06 09:13:36;;;;;;;1.95;0.70;;;;;;;20.50;100.00;97467.34;5091768;28;20032;-78
2022/06/06 09:16:16;;;;;;;0.93;0.20;;;;;;;20.43;100.00;97476.25;5101055;28;20050;-79
2022/06/06 09:19:00;;;;;;;0.13;0.13;;;;;;;20.45;100.00;97479.69;5110926;28;20059;-79
2022/06/06 09:21:26;;;;;;;0.55;0.55;;;;;;;20.43;100.00;97481.69;5093796;28;20019;-79
2022/06/06 09:24:12;;;;;;;0.40;0.40;;;;;;;20.57;100.00;97481.16;5107716;28;20035;-78
2022/06/06 09:26:56;;;;;;;0.40;0.40;;;;;;;20.66;100.00;97492.94;5096421;28;20059;-78
2022/06/06 09:29:46;;;;;;;0.20;0.20;;;;;;;20.73;100.00;97500.31;5100607;28;20096;-78
2022/06/06 09:32:30;;;;;;;0.40;0.30;;;;;;;20.74;100.00;97496.56;5109207;28;20039;-78
2022/06/06 09:35:24;;;;;;;1.67;0.60;;;;;;;20.77;100.00;97496.22;5085015;28;20047;-77
2022/06/06 09:37:49;;;;;;;0.30;0.30;;;;;;;20.75;100.00;97491.97;5084528;28;20028;-78
2022/06/06 09:40:19;;;;;;;1.70;1.05;;;;;;;20.79;100.00;97482.50;5098145;28;20038;-79
2022/06/06 09:43:08;;;;;;;0.40;0.40;;;;;;;20.80;100.00;97468.72;5065482;28;20027;-79
2022/06/06 09:45:47;;;;;;;0.73;0.60;;;;;;;20.87;100.00;97464.34;5091379;28;20495;-80
2022/06/06 09:48:31;;;;;;;0.52;0.52;;;;;;;21.01;100.00;97466.47;5098938;28;20172;-80
2022/06/06 09:51:21;;;;;;;0.30;0.17;;;;;;;21.10;100.00;97459.25;5085029;28;20120;-81
2022/06/06 10:00:51;;;;;;;0.10;0.10;;;;;;;21.76;100.00;97467.47;5112625;28;20533;-80
2022/06/06 10:03:34;;;;;;;0.70;0.30;;;;;;;21.86;100.00;97460.03;5100254;28;20111;-81
2022/06/06 10:06:53;;;;;;;1.02;0.52;;;;;;;21.99;100.00;97456.84;5062470;28;20058;-80
2022/06/06 10:09:24;;;;;;;0.10;0.10;;;;;;;22.19;100.00;97457.34;5016548;28;20073;-79
2022/06/06 10:12:11;;;;;;;0.60;0.50;;;;;;;22.22;100.00;97457.88;5016359;28;20029;-79
2022/06/06 10:14:58;;;;;;;0.32;0.17;;;;;;;22.30;100.00;97454.31;5069804;28;20487;-79
2022/06/06 10:17:33;;;;;;;0.38;0.38;;;;;;;22.20;100.00;97454.47;5114156;28;20038;-80
2022/06/06 10:20:04;;;;;;;0.55;0.45;;;;;;;;;;5109845;28;20090;-79
2022/06/06 10:22:42;;;;;;;1.25;0.73;;;;;;;22.40;100.00;97463.16;5104500;28;20408;-78
2022/06/06 10:25:26;;;;;;;0.28;0.20;;;;;;;22.53;100.00;97460.75;5107280;28;20135;-78
2022/06/06 10:28:06;;;;;;;0.70;0.70;;;;;;;22.62;100.00;97467.91;5108695;28;20078;-79
2022/06/06 10:31:05;;;;;;;0.30;0.28;;;;;;;22.59;100.00;97484.63;5084990;28;20462;-80
2022/06/06 10:33:34;;;;;;;0.20;0.20;;;;;;;22.65;100.00;97484.81;5095453;28;20057;-79
2022/06/06 10:36:30;;;;;;;0.30;0.30;;;;;;;22.46;100.00;97492.44;5102324;28;20087;-80
2022/06/06 10:38:56;;;;;;;0.30;0.30;;;;;;;22.47;100.00;97491.44;5096580;28;20446;-80
2022/06/06 10:41:46;;;;;;;0.85;0.65;;;;;;;22.51;100.00;97484.63;5106757;28;20384;-80
2022/06/06 10:44:53;;;;;;;0.85;0.60;;;;;;;22.63;100.00;97480.53;5100665;28;20024;-80
2022/06/06 10:47:37;;;;;;;6.13;1.42;;;;;;;22.87;100.00;97487.88;5061538;28;20502;-80
2022/06/06 10:50:29;;;;;;;0.40;0.40;;;;;;;23.36;100.00;97488.59;5102579;28;20028;-80
2022/06/06 10:53:01;;;;;;;0.40;0.40;;;;;;;24.04;100.00;97486.91;5084960;28;20028;-80
2022/06/06 10:55:54;;;;;;;0.30;0.30;;;;;;;24.12;100.00;97478.69;5108943;28;20057;-79
2022/06/06 10:58:47;;;;;;;1.20;1.05;;;;;;;23.88;100.00;97478.81;5098913;28;20114;-80
2022/06/06 11:01:16;;;;;;;0.28;0.28;;;;;;;23.98;100.00;97471.25;5096383;28;20119;-80
2022/06/06 11:03:48;;;;;;;0.70;0.45;;;;;;;24.05;100.00;97461.31;5103967;28;20491;-80
2022/06/06 11:06:27;;;;;;;0.47;0.47;;;;;;;24.20;100.00;97453.19;5100651;28;20023;-78
2022/06/06 11:09:07;;;;;;;1.17;0.73;;;;;;;24.31;100.00;97460.09;5093878;28;20028;-79
2022/06/06 11:11:55;;;;;;;2.00;0.50;;;;;;;24.72;100.00;97453.25;5113203;28;20023;-79
2022/06/06 11:14:36;;;;;;;2.35;0.52;;;;;;;24.71;100.00;97465.22;5084363;28;20107;-80
2022/06/06 11:17:25;;;;;;;1.05;0.57;;;;;;;24.44;100.00;97463.06;5106667;28;20032;-80
2022/06/06 11:20:28;;;;;;;0.60;0.50;;;;;;;24.09;100.00;97468.09;5097769;28;20078;-80
2022/06/06 11:23:21;;;;;;;0.57;0.43;;;;;;;23.77;100.00;97457.38;5093454;28;20019;-79
2022/06/06 11:26:13;;;;;;;0.40;0.40;;;;;;;23.78;100.00;97463.69;5084276;28;20031;-80
2022/06/06 11:29:15;;;;;;;0.30;0.30;;;;;;;23.39;100.00;97464.56;5112554;28;20448;-80
2022/06/06 11:31:54;;;;;;;0.45;0.43;;;;;;;23.12;100.00;97443.97;5074252;28;20490;-80
2022/06/06 11:34:19;;;;;;;1.77;0.90;;;;;;;23.16;100.00;97463.59;5081720;28;20496;-78
2022/06/06 11:37:04;;;;;;;0.30;0.30;;;;;;;23.03;100.00;97453.22;5109249;28;20027;-79
2022/06/06 11:40:00;;;;;;;10.75;1.58;;;;;;;22.82;100.00;97461.13;5103773;28;20030;-79
2022/06/06 11:43:12;;;;;;;0.88;0.65;;;;;;;22.70;100.00;97451.59;5101402;28;20497;-79
2022/06/06 11:45:54;;;;;;;1.02;0.40;;;;;;;22.58;100.00;97450.19;5081459;28;20120;-79
2022/06/06 11:48:41;;;;;;;0.85;0.63;;;;;;;22.46;100.00;97455.13;5094900;28;20034;-78
2022/06/06 11:51:09;;;;;;;0.25;0.25;;;;;;;22.42;100.00;97450.22;5103695;28;20534;-78
2022/06/06 11:53:47;;;;;;;0.70;0.60;;;;;;;22.45;100.00;97445.28;5087524;28;20376;-77
2022/06/06 11:56:41;;;;;;;1.83;0.70;;;;;;;22.68;100.00;97435.38;5101070;28;20038;-78
2022/06/06 11:59:31;;;;;;;2.28;1.00;;;;;;;23.02;100.00;97435.13;5108340;28;20031;-79
2022/06/06 12:02:12;;;;;;;1.30;0.77;;;;;;;23.37;100.00;97431.09;5087656;28;20053;-79
2022/06/06 12:05:12;;;;;;;2.25;0.93;;;;;;;23.77;100.00;97440.13;5107872;28;20031;-79
2022/06/06 12:08:05;;;;;;;0.40;0.40;;;;;;;24.48;100.00;97429.72;5103198;28;20028;-79
2022/06/06 12:10:36;;;;;;;1.70;1.05;;;;;;;25.06;100.00;97426.25;5108105;28;20031;-79
2022/06/06 12:13:21;;;;;;;1.08;0.98;;;;;;;25.75;100.00;97429.50;5088386;28;20476;-79
2022/06/06 12:16:05;;;;;;;1.92;0.82;;;;;;;25.90;94.54;97430.31;5101618;28;20035;-79
2022/06/06 12:18:58;;;;;;;0.60;0.60;;;;;;;25.96;92.89;97437.78;5099999;28;20085;-78
2022/06/06 12:21:42;;;;;;;2.30;1.10;;;;;;;26.70;88.74;97430.91;5077721;28;20059;-79
2022/06/06 12:24:42;;;;;;;5.07;1.70;;;;;;;26.96;88.08;97427.56;5102878;28;20518;-79
2022/06/06 12:27:27;;;;;;;3.40;1.23;;;;;;;27.79;81.81;97443.91;5100672;28;20124;-79
2022/06/06 12:30:25;;;;;;;1.10;1.00;;;;;;;27.74;80.28;97431.81;5094899;28;20399;-80
2022/06/06 12:32:58;;;;;;;3.22;0.82;;;;;;;29.20;76.38;97437.31;5091087;28;20103;-79
2022/06/06 12:35:55;;;;;;;8.13;1.55;;;;;;;29.76;69.66;97434.88;5088322;28;20476;-80
2022/06/06 12:38:27;;;;;;;6.25;1.73;;;;;;;29.49;64.77;97421.19;5077071;28;20632;-79
2022/06/06 12:41:11;;;;;;;0.52;0.52;;;;;;;29.41;65.52;97418.66;5102237;28;20043;-80
2022/06/06 12:44:01;;;;;;;0.55;0.55;;;;;;;30.23;64.94;97419.81;5080493;28;20028;-80